Aérodrome :
LOGIN :

S'inscrire | Disclaimer

   EN    FR    IT 

 










Légende :    VFR   VFR Marginal   IFR   IFR Intensif   IFR Très Intensif
Visi : 
Plafond : 
>= 8 km
>= 3000ft
5 à 8 km
1000 à 3000 ft
1500m à 5 km
500 à 1000 ft
800 à 1500m
200 à 500 ft
< 800m
< 200 ft
Symboles :   Orages  Brouillard  Fortes neiges  Fortes précipitations  Vent > 20 kt
SIGMETs :   Divers  Orages  Givrage  Turbulence  Onde Orograph.  Cendres Volcan.






- Altitude de l'aérodrome : 68 ft
- Code IATA : AGH


ESTA - Ängelholm-Helsingborg

DERNIER METAR :
  • 281120Z AUTO 32011KT 9999 FEW190/// 06/02 Q1021

METARs EXPIRÉS :
  • 281050Z AUTO 31010KT 9999 NCD 06/02 Q1021
  • 281020Z AUTO 32010KT 8000 BR FEW200/// 06/02 Q1021
  • 280950Z AUTO 30010KT 6000 BR SCT001/// 06/04 Q1022
  • 280920Z AUTO 28009KT 9999 FEW001/// 07/03 Q1022
  • 280850Z AUTO 31003KT 9999 NCD 08/M01 Q1022

TAF TAF ESTA
Valide du 28 à 09h jusqu'au 28 à 16h UTC


280801Z 2809/2816 VRB02KT CAVOK
BECMG 2809/2810 1200 BR BKN002
BECMG 2810/2812 30010KT 9999 NSW SCT030
TEMPO 2812/2814 2000 BR BKN003



MET'MAP, la Météo Aéronautique d'un coup d'oeil ! - Copyright ORBIFLY Décembre 2007 - Disclaimer

ORBIFLY MET'MAP TEAM :

Programmation & Développement : Alexandra Zaïnal
Sur une idée originale de : Baudouin d'Aumeries
Assistance à la programmation : Marc-Olivier Méhu
Soutien technique & logistique : Manuel Goepfert

Contact : metmap@orbifly.com




SOURCES & CREDITS :

   NOAA